Home > Products > Valid Products > TAF

000
FTUS44 KLUB 192100 AAE
TAFLBB
TAF AMD
KLBB 192140Z 1922/2018 25009KT P6SM -SHRA BKN040
      TEMPO 1922/1923 VRB20G35KT 2SM TSRAGS BKN035CB
     FM200000 20011KT P6SM BKN040=



000
FTUS44 KLUB 192100 AAD
TAFLBB
TAF AMD
KLBB 192118Z 1921/2018 25009KT P6SM BKN040
      TEMPO 1921/1923 5SM -TSRA BKN035CB
     FM200000 20011KT P6SM BKN040=



000
FTUS44 KLUB 192000 AAC
TAFLBB
TAF AMD
KLBB 192022Z 1920/2018 19017KT P6SM VCTS BKN040CB
     FM192200 20011KT P6SM BKN040=



000
FTUS44 KLUB 192000 AAB
TAFLBB
TAF AMD
KLBB 192020Z 1920/2018 19017KT P6SM VCTS BKN040CB=



000
FTUS44 KLUB 191800 AAA
TAFLBB
TAF AMD
KLBB 191859Z 1919/2018 19017KT P6SM BKN040=



000
FTUS44 KLUB 191700
TAFCDS
TAF
KCDS 191724Z 1918/2018 18016KT P6SM SCT050 BKN150=



000
FTUS44 KLUB 191700
TAFLBB
TAF
KLBB 191724Z 1918/2018 17017KT P6SM BKN040=



000
FTUS44 KLUB 191500 AAB
TAFLBB
TAF AMD
KLBB 191532Z 1916/2012 18016KT P6SM BKN020 OVC120=



000
FTUS44 KLUB 191500 AAA
TAFLBB
TAF AMD
KLBB 191500Z 1915/2012 18017KT P6SM SCT150 BKN300
     FM191600 18016KT P6SM BKN035 OVC120=



000
FTUS44 KLUB 191400 AAA
TAFCDS
TAF AMD
KCDS 191443Z 1915/2012 18016KT P6SM SCT050 BKN150=



000
FTUS44 KLUB 191100
TAFLBB
TAF
KLBB 191120Z 1912/2012 16011KT P6SM SCT150 BKN300
     FM191600 18016KT P6SM BKN035 OVC120=



000
FTUS44 KLUB 191100
TAFCDS
TAF
KCDS 191120Z 1912/2012 17009KT P6SM BKN300
     FM191600 18016KT P6SM SCT050 BKN150=



000
FTUS44 KLUB 190500
TAFLBB
TAF
KLBB 190520Z 1906/2006 15009KT P6SM BKN250
     FM191500 18016KT P6SM VCTS BKN030CB BKN180 PROB30 2000/2006
      -TSRA BKN060CB=



000
FTUS44 KLUB 190500
TAFCDS
TAF
KCDS 190520Z 1906/2006 15009KT P6SM BKN250
     FM191500 18016KT P6SM VCSH BKN050 BKN120=



000
FTUS44 KLUB 182300
TAFLBB
TAF
KLBB 182321Z 1900/1924 17014G20KT P6SM BKN250
     FM190100 15011KT P6SM BKN250
     FM191500 18016KT P6SM BKN030 BKN180 PROB30 1918/1924 -TSRA
      BKN060CB=



000
FTUS44 KLUB 182300
TAFCDS
TAF
KCDS 182321Z 1900/1924 16014KT P6SM FEW035 SCT250
     FM190100 15011KT P6SM FEW035 BKN250
     FM191500 18016KT P6SM VCSH BKN050 BKN120=



000
FTUS44 KLUB 181900 AAC
TAFCDS
TAF AMD
KCDS 181938Z 1820/1918 16011KT P6SM SCT030 SCT300=



000
FTUS44 KLUB 181900 AAB
TAFCDS
TAF AMD
KCDS 181905Z 1819/1918 19006KT P6SM BKN020
     FM182000 17011KT P6SM SCT030 SCT300=



000
FTUS44 KLUB 181800 AAA
TAFCDS
TAF AMD
KCDS 181810Z 1818/1918 19006KT P6SM OVC018
     FM182000 17011KT P6SM SCT030 SCT300=



000
FTUS44 KLUB 181700
TAFCDS
TAF
KCDS 181720Z 1818/1918 19006KT P6SM OVC020
     FM181900 17011KT P6SM SCT030 SCT300=



000
FTUS44 KLUB 181700
TAFLBB
TAF
KLBB 181720Z 1818/1918 17011KT P6SM SCT030 BKN300=



000
FTUS44 KLUB 181500 AAC
TAFLBB
TAF AMD
KLBB 181539Z 1816/1912 17011KT P6SM SCT030 BKN300=



000
FTUS44 KLUB 181500 AAB
TAFLBB
TAF AMD
KLBB 181515Z 1815/1912 20008KT P6SM OVC012
      TEMPO 1815/1817 P6SM SCT020
     FM181700 17011KT P6SM SCT030 BKN300=



000
FTUS44 KLUB 181500 AAA
TAFCDS
TAF AMD
KCDS 181506Z 1815/1912 19006KT P6SM OVC015
     FM182000 17011KT P6SM SCT030 SCT300=



000
FTUS44 KLUB 181400 AAA
TAFLBB
TAF AMD
KLBB 181419Z 1814/1912 VRB04KT 3SM BR OVC006
     FM181500 20008KT P6SM OVC012
     FM181700 17011KT P6SM SCT030 BKN300=



000
FTUS44 KLUB 181100
TAFLBB
TAF
KLBB 181120Z 1812/1912 VRB04KT 6SM BR OVC006
     FM181500 20008KT P6SM OVC012
     FM181700 17011KT P6SM SCT030 BKN300=



000
FTUS44 KLUB 181100
TAFCDS
TAF
KCDS 181120Z 1812/1912 VRB04KT P6SM OVC008
     FM181700 19006KT P6SM OVC015
     FM182000 17011KT P6SM SCT030 SCT300=



000
FTUS44 KLUB 180900 AAA
TAFCDS
TAF AMD
KCDS 180925Z 1809/1906 VRB04KT P6SM OVC008
     FM181700 17010KT P6SM SCT025 BKN300=



000
FTUS44 KLUB 180900 AAA
TAFLBB
TAF AMD
KLBB 180923Z 1809/1906 11005KT P6SM OVC012
     FM181500 17011KT P6SM SCT030 SCT300=



000
FTUS44 KLUB 180500
TAFLBB
TAF
KLBB 180520Z 1806/1906 06010KT P6SM FEW030
     FM180700 08006KT 4SM BR OVC010
     FM181500 18009KT P6SM FEW030 SCT300
     FM190300 15011KT P6SM BKN200=



000
FTUS44 KLUB 180500
TAFCDS
TAF
KCDS 180520Z 1806/1906 04006KT 3SM BR OVC008
     FM181500 17010KT P6SM BKN300=



000
FTUS44 KLUB 180200 AAA
TAFCDS
TAF AMD
KCDS 180201Z 1802/1824 03010KT 6SM BR OVC006
     FM180500 VRB04KT 6SM BR OVC006
     FM181500 18010KT P6SM SCT300=



000
FTUS44 KLUB 172300
TAFCDS
TAF
KCDS 172322Z 1800/1824 04010KT P6SM BKN025
     FM180500 VRB04KT 6SM BR OVC010
     FM181500 18010KT P6SM SCT300=



000
FTUS44 KLUB 172300
TAFLBB
TAF
KLBB 172322Z 1800/1824 06010KT P6SM SCT035 SCT200
     FM180900 08008KT 5SM BR BKN010
     FM181500 16011KT P6SM SCT300=



000
FTUS44 KLUB 171700
TAFLBB
TAF
KLBB 171732Z 1718/1818 03013KT P6SM BKN028
     FM172200 04011KT P6SM FEW035
     FM181000 15008KT P6SM BKN015=



000
FTUS44 KLUB 171700
TAFCDS
TAF
KCDS 171732Z 1718/1818 03011KT P6SM OVC020
     FM180500 VRB04KT P6SM OVC010=



000
FTUS44 KLUB 171500 AAA
TAFLBB
TAF AMD
KLBB 171538Z 1716/1812 03011KT P6SM BKN018
     FM172200 05011KT P6SM FEW035 FEW200
     FM180300 08006KT P6SM BKN015=



000
FTUS44 KLUB 171400 AAA
TAFCDS
TAF AMD
KCDS 171403Z 1714/1812 04011KT P6SM BKN017
     FM171700 03015KT P6SM BKN035 OVC200
     FM172100 02012KT P6SM SCT200
     FM180300 VRB05KT P6SM BKN020=



000
FTUS44 KLUB 171100
TAFLBB
TAF
KLBB 171125Z 1712/1812 11012KT P6SM BKN200 OVC260
     FM171700 03013KT P6SM FEW035 FEW200
     FM180300 08006KT P6SM BKN015=



000
FTUS44 KLUB 171100
TAFCDS
TAF
KCDS 171125Z 1712/1812 13012KT P6SM OVC200
     FM171700 03015KT P6SM BKN035 OVC200
     FM172100 02012KT P6SM SCT200
     FM180300 VRB05KT P6SM BKN020=



000
FTUS44 KLUB 170500
TAFLBB
TAF
KLBB 170523Z 1706/1806 15017KT P6SM BKN250
     FM171100 03014KT P6SM SCT030 BKN250
     FM180100 08006KT P6SM SCT020=



000
FTUS44 KLUB 170500
TAFCDS
TAF
KCDS 170523Z 1706/1806 11015KT P6SM BKN250
     FM170900 08012KT P6SM SCT020 BKN150
     FM171200 03008KT P6SM OVC010 PROB30 1715/1718 -SHRA=



000
FTUS44 KLUB 162300
TAFCDS
TAF
KCDS 162320Z 1700/1724 17016G23KT P6SM FEW250
     FM170100 15014KT P6SM SCT250
     FM170900 08008KT P6SM SCT020 BKN150
     FM171200 02011KT P6SM OVC010 PROB30 1712/1718 -SHRA=



000
FTUS44 KLUB 162300
TAFLBB
TAF
KLBB 162320Z 1700/1724 20015G20KT P6SM FEW250
     FM170100 15014KT P6SM FEW250
     FM171100 03014KT P6SM SCT030 SCT250=



    US Dept of Commerce
    National Oceanic and Atmospheric Administration
    National Weather Service
    1325 East West Highway
    Silver Spring, MD 20910
    Page Author: NWS Internet Services Team
Disclaimer
Information Quality
Credits
Glossary
Privacy Policy
Freedom of Information Act (FOIA)
About Us
Career Opportunities